Alden, New York
Current Conditions -  °F | °C
As of 6:41 PM on Saturday 25 Oct 2014 (Local Time) from KBUF Reporting Station
Broken Clouds Broken Clouds  
Wind Chill: 57°   Ceiling: 1400
Heat Index: 57°   Visibility: 7mi
Dew Point: 52°   Wind: 14mph
Humidity: 83%   Direction: 250°WSW
Pressure: 29.65"   Gusts: NA
Location:  42.9°N, 78.49°W
Report Text: KBUF 252241Z 25012KT 7SM BKN014 BKN022 14/11 A2965 RMK AO2 T01390111
Loading
Personal Weather Stations






























Interactive Weather Map
Tropical Storm Tracking
New forecast layout! Learn more

10-Day Weather Forecast

Advertisements
Track Severe Weather on mobile